sensor_id;sensor_type;location;lat;lon;timestamp;P1;durP1;ratioP1;P2;durP2;ratioP2
81544;SDS011;70990;50.618;7.346;2023-07-08T00:00:52;11.50;;;3.95;;
81544;SDS011;70990;50.618;7.346;2023-07-08T00:03:20;13.70;;;4.50;;
81544;SDS011;70990;50.618;7.346;2023-07-08T00:05:47;10.38;;;4.70;;
81544;SDS011;70990;50.618;7.346;2023-07-08T00:08:19;13.40;;;4.05;;
81544;SDS011;70990;50.618;7.346;2023-07-08T00:10:46;8.93;;;3.65;;
81544;SDS011;70990;50.618;7.346;2023-07-08T00:13:13;9.73;;;4.30;;
81544;SDS011;70990;50.618;7.346;2023-07-08T00:15:40;9.57;;;4.20;;
81544;SDS011;70990;50.618;7.346;2023-07-08T00:18:13;9.98;;;3.70;;
81544;SDS011;70990;50.618;7.346;2023-07-08T00:20:46;12.90;;;4.93;;
81544;SDS011;70990;50.618;7.346;2023-07-08T00:23:14;8.38;;;3.83;;
81544;SDS011;70990;50.618;7.346;2023-07-08T00:25:41;9.10;;;4.00;;
81544;SDS011;70990;50.618;7.346;2023-07-08T00:28:15;9.05;;;3.85;;
81544;SDS011;70990;50.618;7.346;2023-07-08T00:30:43;11.48;;;4.30;;
81544;SDS011;70990;50.618;7.346;2023-07-08T00:33:10;9.90;;;4.20;;
81544;SDS011;70990;50.618;7.346;2023-07-08T00:35:37;9.55;;;4.18;;
81544;SDS011;70990;50.618;7.346;2023-07-08T00:40:51;12.55;;;4.35;;
81544;SDS011;70990;50.618;7.346;2023-07-08T00:44:10;10.75;;;4.40;;
81544;SDS011;70990;50.618;7.346;2023-07-08T00:48:58;10.43;;;4.93;;
81544;SDS011;70990;50.618;7.346;2023-07-08T00:51:29;10.77;;;4.25;;
81544;SDS011;70990;50.618;7.346;2023-07-08T00:53:55;12.23;;;4.25;;
81544;SDS011;70990;50.618;7.346;2023-07-08T00:56:24;11.18;;;4.20;;
81544;SDS011;70990;50.618;7.346;2023-07-08T00:58:55;8.40;;;3.88;;
81544;SDS011;70990;50.618;7.346;2023-07-08T01:01:23;9.82;;;3.97;;
81544;SDS011;70990;50.618;7.346;2023-07-08T01:06:29;8.68;;;4.10;;
81544;SDS011;70990;50.618;7.346;2023-07-08T01:09:02;11.45;;;3.97;;
81544;SDS011;70990;50.618;7.346;2023-07-08T01:11:29;9.40;;;3.70;;
81544;SDS011;70990;50.618;7.346;2023-07-08T01:13:56;10.48;;;4.13;;
81544;SDS011;70990;50.618;7.346;2023-07-08T01:16:24;10.73;;;4.45;;
81544;SDS011;70990;50.618;7.346;2023-07-08T01:18:50;9.32;;;3.88;;
81544;SDS011;70990;50.618;7.346;2023-07-08T01:21:34;9.27;;;4.25;;
81544;SDS011;70990;50.618;7.346;2023-07-08T01:24:04;11.40;;;4.68;;
81544;SDS011;70990;50.618;7.346;2023-07-08T01:26:34;9.27;;;4.38;;
81544;SDS011;70990;50.618;7.346;2023-07-08T01:29:03;9.00;;;3.90;;
81544;SDS011;70990;50.618;7.346;2023-07-08T01:31:30;11.18;;;4.78;;
81544;SDS011;70990;50.618;7.346;2023-07-08T01:33:57;9.10;;;3.95;;
81544;SDS011;70990;50.618;7.346;2023-07-08T01:36:23;8.75;;;3.90;;
81544;SDS011;70990;50.618;7.346;2023-07-08T01:38:52;9.77;;;4.50;;
81544;SDS011;70990;50.618;7.346;2023-07-08T01:41:18;9.05;;;4.20;;
81544;SDS011;70990;50.618;7.346;2023-07-08T01:43:45;9.80;;;4.18;;
81544;SDS011;70990;50.618;7.346;2023-07-08T01:46:19;9.77;;;4.40;;
81544;SDS011;70990;50.618;7.346;2023-07-08T01:48:53;10.95;;;4.45;;
81544;SDS011;70990;50.618;7.346;2023-07-08T01:51:24;8.45;;;3.88;;
81544;SDS011;70990;50.618;7.346;2023-07-08T01:53:52;8.77;;;3.60;;
81544;SDS011;70990;50.618;7.346;2023-07-08T01:56:19;10.45;;;4.22;;
81544;SDS011;70990;50.618;7.346;2023-07-08T01:58:46;8.82;;;3.88;;
81544;SDS011;70990;50.618;7.346;2023-07-08T02:01:12;10.23;;;4.22;;
81544;SDS011;70990;50.618;7.346;2023-07-08T02:03:39;9.98;;;4.15;;
81544;SDS011;70990;50.618;7.346;2023-07-08T02:06:10;11.60;;;4.57;;
81544;SDS011;70990;50.618;7.346;2023-07-08T02:08:36;10.20;;;4.22;;
81544;SDS011;70990;50.618;7.346;2023-07-08T02:11:03;8.77;;;3.88;;
81544;SDS011;70990;50.618;7.346;2023-07-08T02:13:30;9.93;;;4.35;;
81544;SDS011;70990;50.618;7.346;2023-07-08T02:15:56;7.82;;;3.63;;
81544;SDS011;70990;50.618;7.346;2023-07-08T02:18:24;10.23;;;3.47;;
81544;SDS011;70990;50.618;7.346;2023-07-08T02:20:51;9.43;;;3.60;;
81544;SDS011;70990;50.618;7.346;2023-07-08T02:23:18;9.27;;;4.10;;
81544;SDS011;70990;50.618;7.346;2023-07-08T02:25:52;10.30;;;3.97;;
81544;SDS011;70990;50.618;7.346;2023-07-08T02:28:19;10.45;;;4.22;;
81544;SDS011;70990;50.618;7.346;2023-07-08T02:30:46;10.02;;;3.83;;
81544;SDS011;70990;50.618;7.346;2023-07-08T02:33:13;9.85;;;4.18;;
81544;SDS011;70990;50.618;7.346;2023-07-08T02:35:40;9.23;;;4.15;;
81544;SDS011;70990;50.618;7.346;2023-07-08T02:38:06;9.38;;;3.90;;
81544;SDS011;70990;50.618;7.346;2023-07-08T02:40:33;8.85;;;4.55;;
81544;SDS011;70990;50.618;7.346;2023-07-08T02:43:00;10.23;;;4.20;;
81544;SDS011;70990;50.618;7.346;2023-07-08T02:45:26;12.45;;;4.30;;
81544;SDS011;70990;50.618;7.346;2023-07-08T02:47:53;12.60;;;4.35;;
81544;SDS011;70990;50.618;7.346;2023-07-08T02:50:19;9.02;;;4.25;;
81544;SDS011;70990;50.618;7.346;2023-07-08T02:52:46;11.38;;;4.20;;
81544;SDS011;70990;50.618;7.346;2023-07-08T02:55:12;9.60;;;3.75;;
81544;SDS011;70990;50.618;7.346;2023-07-08T02:57:39;9.60;;;3.80;;
81544;SDS011;70990;50.618;7.346;2023-07-08T03:00:06;8.13;;;3.80;;
81544;SDS011;70990;50.618;7.346;2023-07-08T03:02:32;8.15;;;3.55;;
81544;SDS011;70990;50.618;7.346;2023-07-08T03:04:59;10.55;;;3.88;;
81544;SDS011;70990;50.618;7.346;2023-07-08T03:07:25;8.82;;;4.18;;
81544;SDS011;70990;50.618;7.346;2023-07-08T03:09:52;9.20;;;3.88;;
81544;SDS011;70990;50.618;7.346;2023-07-08T03:12:19;9.73;;;3.65;;
81544;SDS011;70990;50.618;7.346;2023-07-08T03:14:45;9.43;;;4.03;;
81544;SDS011;70990;50.618;7.346;2023-07-08T03:17:12;9.10;;;3.83;;
81544;SDS011;70990;50.618;7.346;2023-07-08T03:19:40;9.05;;;3.85;;
81544;SDS011;70990;50.618;7.346;2023-07-08T03:22:07;10.38;;;4.05;;
81544;SDS011;70990;50.618;7.346;2023-07-08T03:24:34;8.75;;;3.80;;
81544;SDS011;70990;50.618;7.346;2023-07-08T03:27:03;8.73;;;4.18;;
81544;SDS011;70990;50.618;7.346;2023-07-08T03:29:30;8.35;;;4.00;;
81544;SDS011;70990;50.618;7.346;2023-07-08T03:31:57;9.70;;;3.47;;
81544;SDS011;70990;50.618;7.346;2023-07-08T03:34:23;12.48;;;4.25;;
81544;SDS011;70990;50.618;7.346;2023-07-08T03:36:50;8.80;;;4.20;;
81544;SDS011;70990;50.618;7.346;2023-07-08T03:39:18;9.90;;;3.95;;
81544;SDS011;70990;50.618;7.346;2023-07-08T03:41:47;11.18;;;4.32;;
81544;SDS011;70990;50.618;7.346;2023-07-08T03:44:14;10.95;;;4.22;;
81544;SDS011;70990;50.618;7.346;2023-07-08T03:46:45;8.77;;;3.53;;
81544;SDS011;70990;50.618;7.346;2023-07-08T03:49:16;8.77;;;3.97;;
81544;SDS011;70990;50.618;7.346;2023-07-08T03:51:44;9.88;;;4.03;;
81544;SDS011;70990;50.618;7.346;2023-07-08T03:54:12;9.13;;;3.95;;
81544;SDS011;70990;50.618;7.346;2023-07-08T03:56:40;7.80;;;3.15;;
81544;SDS011;70990;50.618;7.346;2023-07-08T03:59:08;9.68;;;4.00;;
81544;SDS011;70990;50.618;7.346;2023-07-08T04:01:36;9.07;;;3.90;;
81544;SDS011;70990;50.618;7.346;2023-07-08T04:04:03;9.88;;;4.25;;
81544;SDS011;70990;50.618;7.346;2023-07-08T04:06:32;9.05;;;3.92;;
81544;SDS011;70990;50.618;7.346;2023-07-08T04:08:59;8.00;;;3.92;;
81544;SDS011;70990;50.618;7.346;2023-07-08T04:11:26;9.75;;;3.65;;
81544;SDS011;70990;50.618;7.346;2023-07-08T04:13:53;10.95;;;3.90;;
81544;SDS011;70990;50.618;7.346;2023-07-08T04:16:26;8.48;;;3.75;;
81544;SDS011;70990;50.618;7.346;2023-07-08T04:18:56;11.68;;;4.25;;
81544;SDS011;70990;50.618;7.346;2023-07-08T04:21:23;9.18;;;3.45;;
81544;SDS011;70990;50.618;7.346;2023-07-08T04:23:51;9.60;;;4.13;;
81544;SDS011;70990;50.618;7.346;2023-07-08T04:26:17;11.75;;;5.00;;
81544;SDS011;70990;50.618;7.346;2023-07-08T04:28:44;8.27;;;3.75;;
81544;SDS011;70990;50.618;7.346;2023-07-08T04:31:11;10.57;;;3.78;;
81544;SDS011;70990;50.618;7.346;2023-07-08T04:33:37;8.88;;;3.40;;
81544;SDS011;70990;50.618;7.346;2023-07-08T04:36:04;12.07;;;4.15;;
81544;SDS011;70990;50.618;7.346;2023-07-08T04:38:38;10.18;;;3.80;;
81544;SDS011;70990;50.618;7.346;2023-07-08T04:41:04;7.93;;;3.25;;
81544;SDS011;70990;50.618;7.346;2023-07-08T04:43:31;8.38;;;3.58;;
81544;SDS011;70990;50.618;7.346;2023-07-08T04:45:57;13.07;;;4.03;;
81544;SDS011;70990;50.618;7.346;2023-07-08T04:48:24;9.90;;;4.00;;
81544;SDS011;70990;50.618;7.346;2023-07-08T04:50:51;7.88;;;3.22;;
81544;SDS011;70990;50.618;7.346;2023-07-08T04:53:19;8.35;;;3.38;;
81544;SDS011;70990;50.618;7.346;2023-07-08T04:55:53;8.77;;;3.67;;
81544;SDS011;70990;50.618;7.346;2023-07-08T04:58:22;8.93;;;3.78;;
81544;SDS011;70990;50.618;7.346;2023-07-08T05:00:49;8.27;;;3.53;;
81544;SDS011;70990;50.618;7.346;2023-07-08T05:03:15;9.88;;;4.28;;
81544;SDS011;70990;50.618;7.346;2023-07-08T05:05:48;12.65;;;4.35;;
81544;SDS011;70990;50.618;7.346;2023-07-08T05:08:15;8.15;;;3.85;;
81544;SDS011;70990;50.618;7.346;2023-07-08T05:10:42;8.73;;;3.88;;
81544;SDS011;70990;50.618;7.346;2023-07-08T05:13:09;8.13;;;3.25;;
81544;SDS011;70990;50.618;7.346;2023-07-08T05:15:36;9.65;;;3.88;;
81544;SDS011;70990;50.618;7.346;2023-07-08T05:18:02;9.45;;;3.42;;
81544;SDS011;70990;50.618;7.346;2023-07-08T05:20:29;10.07;;;3.88;;
81544;SDS011;70990;50.618;7.346;2023-07-08T05:22:55;10.15;;;4.10;;
81544;SDS011;70990;50.618;7.346;2023-07-08T05:25:22;9.18;;;3.83;;
81544;SDS011;70990;50.618;7.346;2023-07-08T05:27:49;7.07;;;3.47;;
81544;SDS011;70990;50.618;7.346;2023-07-08T05:30:16;8.48;;;3.65;;
81544;SDS011;70990;50.618;7.346;2023-07-08T05:32:44;10.00;;;4.28;;
81544;SDS011;70990;50.618;7.346;2023-07-08T05:35:11;9.32;;;3.60;;
81544;SDS011;70990;50.618;7.346;2023-07-08T05:37:38;10.15;;;4.25;;
81544;SDS011;70990;50.618;7.346;2023-07-08T05:40:05;8.80;;;3.70;;
81544;SDS011;70990;50.618;7.346;2023-07-08T05:42:32;8.43;;;3.72;;
81544;SDS011;70990;50.618;7.346;2023-07-08T05:44:59;9.15;;;3.58;;
81544;SDS011;70990;50.618;7.346;2023-07-08T05:47:25;10.32;;;3.90;;
81544;SDS011;70990;50.618;7.346;2023-07-08T05:49:52;8.77;;;3.45;;
81544;SDS011;70990;50.618;7.346;2023-07-08T05:52:19;9.45;;;3.75;;
81544;SDS011;70990;50.618;7.346;2023-07-08T05:54:45;8.63;;;3.55;;
81544;SDS011;70990;50.618;7.346;2023-07-08T05:57:12;8.50;;;3.92;;
81544;SDS011;70990;50.618;7.346;2023-07-08T05:59:38;10.65;;;4.47;;
81544;SDS011;70990;50.618;7.346;2023-07-08T06:02:06;9.43;;;3.75;;
81544;SDS011;70990;50.618;7.346;2023-07-08T06:04:32;10.70;;;4.45;;
81544;SDS011;70990;50.618;7.346;2023-07-08T06:06:59;8.45;;;4.68;;
81544;SDS011;70990;50.618;7.346;2023-07-08T06:09:26;9.02;;;4.43;;
81544;SDS011;70990;50.618;7.346;2023-07-08T06:11:53;9.60;;;4.03;;
81544;SDS011;70990;50.618;7.346;2023-07-08T06:14:19;9.32;;;4.15;;
81544;SDS011;70990;50.618;7.346;2023-07-08T06:16:46;8.25;;;3.45;;
81544;SDS011;70990;50.618;7.346;2023-07-08T06:19:13;7.95;;;3.35;;
81544;SDS011;70990;50.618;7.346;2023-07-08T06:21:39;7.85;;;3.97;;
81544;SDS011;70990;50.618;7.346;2023-07-08T06:24:06;8.63;;;3.83;;
81544;SDS011;70990;50.618;7.346;2023-07-08T06:26:32;9.45;;;3.58;;
81544;SDS011;70990;50.618;7.346;2023-07-08T06:28:59;9.00;;;3.50;;
81544;SDS011;70990;50.618;7.346;2023-07-08T06:31:25;7.28;;;3.13;;
81544;SDS011;70990;50.618;7.346;2023-07-08T06:33:52;7.70;;;3.28;;
81544;SDS011;70990;50.618;7.346;2023-07-08T06:36:18;7.80;;;3.67;;
81544;SDS011;70990;50.618;7.346;2023-07-08T06:38:45;10.02;;;3.45;;
81544;SDS011;70990;50.618;7.346;2023-07-08T06:41:12;7.78;;;3.35;;
81544;SDS011;70990;50.618;7.346;2023-07-08T06:43:38;7.22;;;3.20;;
81544;SDS011;70990;50.618;7.346;2023-07-08T06:46:15;8.10;;;3.55;;
81544;SDS011;70990;50.618;7.346;2023-07-08T06:48:42;7.65;;;3.00;;
81544;SDS011;70990;50.618;7.346;2023-07-08T06:51:09;6.80;;;3.35;;
81544;SDS011;70990;50.618;7.346;2023-07-08T06:53:36;7.15;;;3.17;;
81544;SDS011;70990;50.618;7.346;2023-07-08T06:56:02;9.20;;;3.75;;
81544;SDS011;70990;50.618;7.346;2023-07-08T06:58:29;8.57;;;3.38;;
81544;SDS011;70990;50.618;7.346;2023-07-08T07:00:56;9.80;;;3.92;;
81544;SDS011;70990;50.618;7.346;2023-07-08T07:03:23;7.55;;;3.42;;
81544;SDS011;70990;50.618;7.346;2023-07-08T07:05:50;8.60;;;3.65;;
81544;SDS011;70990;50.618;7.346;2023-07-08T07:08:16;7.05;;;3.20;;
81544;SDS011;70990;50.618;7.346;2023-07-08T07:10:43;8.80;;;3.30;;
81544;SDS011;70990;50.618;7.346;2023-07-08T07:13:09;7.55;;;3.50;;
81544;SDS011;70990;50.618;7.346;2023-07-08T07:15:36;8.05;;;3.50;;
81544;SDS011;70990;50.618;7.346;2023-07-08T07:18:02;8.65;;;3.30;;
81544;SDS011;70990;50.618;7.346;2023-07-08T07:20:30;9.95;;;3.42;;
81544;SDS011;70990;50.618;7.346;2023-07-08T07:22:57;8.25;;;3.63;;
81544;SDS011;70990;50.618;7.346;2023-07-08T07:25:24;9.20;;;3.30;;
81544;SDS011;70990;50.618;7.346;2023-07-08T07:27:50;8.20;;;2.85;;
81544;SDS011;70990;50.618;7.346;2023-07-08T07:30:17;7.53;;;3.30;;
81544;SDS011;70990;50.618;7.346;2023-07-08T07:32:44;11.45;;;3.35;;
81544;SDS011;70990;50.618;7.346;2023-07-08T07:35:11;8.20;;;3.00;;
81544;SDS011;70990;50.618;7.346;2023-07-08T07:37:38;7.10;;;3.03;;
81544;SDS011;70990;50.618;7.346;2023-07-08T07:40:09;8.02;;;3.15;;
81544;SDS011;70990;50.618;7.346;2023-07-08T07:42:37;7.28;;;2.80;;
81544;SDS011;70990;50.618;7.346;2023-07-08T07:45:07;7.22;;;2.67;;
81544;SDS011;70990;50.618;7.346;2023-07-08T07:47:34;7.65;;;2.80;;
81544;SDS011;70990;50.618;7.346;2023-07-08T07:50:02;9.65;;;2.85;;
81544;SDS011;70990;50.618;7.346;2023-07-08T07:52:30;7.25;;;3.47;;
81544;SDS011;70990;50.618;7.346;2023-07-08T07:54:57;7.95;;;2.65;;
81544;SDS011;70990;50.618;7.346;2023-07-08T07:57:23;6.75;;;2.95;;
81544;SDS011;70990;50.618;7.346;2023-07-08T07:59:50;7.57;;;3.20;;
81544;SDS011;70990;50.618;7.346;2023-07-08T08:02:18;7.18;;;3.00;;
81544;SDS011;70990;50.618;7.346;2023-07-08T08:04:45;6.55;;;2.60;;
81544;SDS011;70990;50.618;7.346;2023-07-08T08:07:12;7.80;;;2.55;;
81544;SDS011;70990;50.618;7.346;2023-07-08T08:09:39;5.78;;;2.30;;
81544;SDS011;70990;50.618;7.346;2023-07-08T08:12:07;6.90;;;2.53;;
81544;SDS011;70990;50.618;7.346;2023-07-08T08:14:36;6.55;;;2.60;;
81544;SDS011;70990;50.618;7.346;2023-07-08T08:17:03;7.50;;;2.83;;
81544;SDS011;70990;50.618;7.346;2023-07-08T08:19:29;6.75;;;2.83;;
81544;SDS011;70990;50.618;7.346;2023-07-08T08:21:56;5.28;;;2.17;;
81544;SDS011;70990;50.618;7.346;2023-07-08T08:24:22;6.45;;;2.38;;
81544;SDS011;70990;50.618;7.346;2023-07-08T08:26:52;5.45;;;2.25;;
81544;SDS011;70990;50.618;7.346;2023-07-08T08:29:18;9.60;;;2.17;;
81544;SDS011;70990;50.618;7.346;2023-07-08T08:31:45;7.32;;;2.53;;
81544;SDS011;70990;50.618;7.346;2023-07-08T08:34:11;6.50;;;2.60;;
81544;SDS011;70990;50.618;7.346;2023-07-08T08:36:38;5.35;;;2.15;;
81544;SDS011;70990;50.618;7.346;2023-07-08T08:39:04;5.30;;;2.30;;
81544;SDS011;70990;50.618;7.346;2023-07-08T08:41:32;7.63;;;2.60;;
81544;SDS011;70990;50.618;7.346;2023-07-08T08:51:47;6.10;;;2.40;;
81544;SDS011;70990;50.618;7.346;2023-07-08T08:54:15;6.45;;;2.75;;
81544;SDS011;70990;50.618;7.346;2023-07-08T09:02:57;8.50;;;2.75;;
81544;SDS011;70990;50.618;7.346;2023-07-08T09:05:19;6.63;;;2.92;;
81544;SDS011;70990;50.618;7.346;2023-07-08T09:10:58;6.68;;;2.58;;
81544;SDS011;70990;50.618;7.346;2023-07-08T09:13:32;7.50;;;2.50;;
81544;SDS011;70990;50.618;7.346;2023-07-08T09:18:32;6.97;;;2.60;;
81544;SDS011;70990;50.618;7.346;2023-07-08T09:21:07;6.68;;;2.90;;
81544;SDS011;70990;50.618;7.346;2023-07-08T09:23:47;8.48;;;2.75;;
81544;SDS011;70990;50.618;7.346;2023-07-08T09:26:18;10.70;;;2.90;;
81544;SDS011;70990;50.618;7.346;2023-07-08T09:28:48;9.85;;;2.53;;
81544;SDS011;70990;50.618;7.346;2023-07-08T09:31:25;7.03;;;2.85;;
81544;SDS011;70990;50.618;7.346;2023-07-08T09:34:05;7.93;;;2.67;;
81544;SDS011;70990;50.618;7.346;2023-07-08T09:36:37;6.88;;;2.72;;
81544;SDS011;70990;50.618;7.346;2023-07-08T09:39:12;6.57;;;2.63;;
81544;SDS011;70990;50.618;7.346;2023-07-08T09:41:41;7.85;;;3.53;;
81544;SDS011;70990;50.618;7.346;2023-07-08T09:46:43;6.10;;;2.53;;
81544;SDS011;70990;50.618;7.346;2023-07-08T09:51:46;7.50;;;3.20;;
81544;SDS011;70990;50.618;7.346;2023-07-08T09:54:13;6.05;;;2.78;;
81544;SDS011;70990;50.618;7.346;2023-07-08T09:56:41;7.25;;;2.90;;
81544;SDS011;70990;50.618;7.346;2023-07-08T09:59:16;7.07;;;2.60;;
81544;SDS011;70990;50.618;7.346;2023-07-08T10:01:45;8.63;;;3.53;;
81544;SDS011;70990;50.618;7.346;2023-07-08T10:04:12;8.82;;;3.28;;
81544;SDS011;70990;50.618;7.346;2023-07-08T10:06:39;7.32;;;2.78;;
81544;SDS011;70990;50.618;7.346;2023-07-08T10:09:11;8.88;;;3.28;;
81544;SDS011;70990;50.618;7.346;2023-07-08T10:11:41;6.55;;;2.60;;
81544;SDS011;70990;50.618;7.346;2023-07-08T10:16:53;7.80;;;3.38;;
81544;SDS011;70990;50.618;7.346;2023-07-08T10:19:20;7.75;;;3.53;;
81544;SDS011;70990;50.618;7.346;2023-07-08T10:24:23;7.55;;;3.03;;
81544;SDS011;70990;50.618;7.346;2023-07-08T10:27:14;7.18;;;3.35;;
81544;SDS011;70990;50.618;7.346;2023-07-08T10:29:52;7.05;;;3.03;;
81544;SDS011;70990;50.618;7.346;2023-07-08T10:34:52;9.35;;;3.42;;
81544;SDS011;70990;50.618;7.346;2023-07-08T10:45:42;9.68;;;4.03;;
81544;SDS011;70990;50.618;7.346;2023-07-08T10:48:41;9.90;;;3.40;;
81544;SDS011;70990;50.618;7.346;2023-07-08T10:59:31;8.07;;;3.33;;
81544;SDS011;70990;50.618;7.346;2023-07-08T11:07:57;10.13;;;3.42;;
81544;SDS011;70990;50.618;7.346;2023-07-08T11:10:26;6.95;;;2.88;;
81544;SDS011;70990;50.618;7.346;2023-07-08T11:13:06;6.57;;;2.65;;
81544;SDS011;70990;50.618;7.346;2023-07-08T11:15:57;7.22;;;2.72;;
81544;SDS011;70990;50.618;7.346;2023-07-08T11:21:30;7.03;;;3.17;;
81544;SDS011;70990;50.618;7.346;2023-07-08T11:24:04;7.63;;;3.33;;
81544;SDS011;70990;50.618;7.346;2023-07-08T11:26:41;10.15;;;3.03;;
81544;SDS011;70990;50.618;7.346;2023-07-08T11:29:15;6.80;;;3.08;;
81544;SDS011;70990;50.618;7.346;2023-07-08T11:31:46;7.65;;;3.10;;
81544;SDS011;70990;50.618;7.346;2023-07-08T11:34:16;7.75;;;3.33;;
81544;SDS011;70990;50.618;7.346;2023-07-08T11:36:44;7.88;;;3.03;;
81544;SDS011;70990;50.618;7.346;2023-07-08T11:42:04;9.25;;;3.03;;
81544;SDS011;70990;50.618;7.346;2023-07-08T11:44:54;11.48;;;2.97;;
81544;SDS011;70990;50.618;7.346;2023-07-08T11:50:01;7.63;;;3.13;;
81544;SDS011;70990;50.618;7.346;2023-07-08T11:52:29;6.15;;;2.88;;
81544;SDS011;70990;50.618;7.346;2023-07-08T11:54:59;6.75;;;2.90;;
81544;SDS011;70990;50.618;7.346;2023-07-08T11:57:34;9.07;;;3.28;;
81544;SDS011;70990;50.618;7.346;2023-07-08T12:00:18;6.30;;;3.13;;
81544;SDS011;70990;50.618;7.346;2023-07-08T12:02:49;7.10;;;2.72;;
81544;SDS011;70990;50.618;7.346;2023-07-08T12:05:30;7.57;;;3.80;;
81544;SDS011;70990;50.618;7.346;2023-07-08T12:07:59;8.00;;;4.30;;
81544;SDS011;70990;50.618;7.346;2023-07-08T12:10:34;6.75;;;2.78;;
81544;SDS011;70990;50.618;7.346;2023-07-08T12:13:05;8.23;;;3.70;;
81544;SDS011;70990;50.618;7.346;2023-07-08T12:15:39;7.85;;;3.60;;
81544;SDS011;70990;50.618;7.346;2023-07-08T12:18:15;8.23;;;4.07;;
81544;SDS011;70990;50.618;7.346;2023-07-08T12:20:49;8.60;;;4.03;;
81544;SDS011;70990;50.618;7.346;2023-07-08T12:23:23;7.65;;;3.88;;
81544;SDS011;70990;50.618;7.346;2023-07-08T12:25:51;9.20;;;3.55;;
81544;SDS011;70990;50.618;7.346;2023-07-08T12:28:20;9.82;;;4.30;;
81544;SDS011;70990;50.618;7.346;2023-07-08T12:30:47;8.07;;;3.83;;
81544;SDS011;70990;50.618;7.346;2023-07-08T12:33:21;8.52;;;3.47;;
81544;SDS011;70990;50.618;7.346;2023-07-08T12:35:54;7.97;;;3.30;;
81544;SDS011;70990;50.618;7.346;2023-07-08T12:38:23;7.47;;;3.97;;
81544;SDS011;70990;50.618;7.346;2023-07-08T12:41:10;8.50;;;3.47;;
81544;SDS011;70990;50.618;7.346;2023-07-08T12:43:39;9.23;;;3.83;;
81544;SDS011;70990;50.618;7.346;2023-07-08T12:46:06;9.85;;;3.55;;
81544;SDS011;70990;50.618;7.346;2023-07-08T12:48:36;9.32;;;3.78;;
81544;SDS011;70990;50.618;7.346;2023-07-08T12:51:05;7.85;;;3.67;;
81544;SDS011;70990;50.618;7.346;2023-07-08T12:53:36;8.93;;;3.80;;
81544;SDS011;70990;50.618;7.346;2023-07-08T12:56:03;9.23;;;3.75;;
81544;SDS011;70990;50.618;7.346;2023-07-08T12:58:32;8.57;;;3.60;;
81544;SDS011;70990;50.618;7.346;2023-07-08T13:01:04;7.30;;;3.70;;
81544;SDS011;70990;50.618;7.346;2023-07-08T13:03:37;7.75;;;3.70;;
81544;SDS011;70990;50.618;7.346;2023-07-08T13:06:07;9.45;;;4.20;;
81544;SDS011;70990;50.618;7.346;2023-07-08T13:08:36;8.70;;;5.05;;
81544;SDS011;70990;50.618;7.346;2023-07-08T13:11:05;8.50;;;4.03;;
81544;SDS011;70990;50.618;7.346;2023-07-08T13:13:37;7.88;;;4.15;;
81544;SDS011;70990;50.618;7.346;2023-07-08T13:16:07;8.15;;;3.80;;
81544;SDS011;70990;50.618;7.346;2023-07-08T13:18:36;8.85;;;3.80;;
81544;SDS011;70990;50.618;7.346;2023-07-08T13:21:06;10.05;;;4.28;;
81544;SDS011;70990;50.618;7.346;2023-07-08T13:23:35;10.05;;;4.50;;
81544;SDS011;70990;50.618;7.346;2023-07-08T13:26:11;7.82;;;4.30;;
81544;SDS011;70990;50.618;7.346;2023-07-08T13:28:39;8.82;;;4.07;;
81544;SDS011;70990;50.618;7.346;2023-07-08T13:31:22;9.50;;;3.72;;
81544;SDS011;70990;50.618;7.346;2023-07-08T13:33:52;7.80;;;4.43;;
81544;SDS011;70990;50.618;7.346;2023-07-08T13:36:24;9.27;;;4.78;;
81544;SDS011;70990;50.618;7.346;2023-07-08T13:38:58;10.55;;;4.45;;
81544;SDS011;70990;50.618;7.346;2023-07-08T13:41:27;9.25;;;4.30;;
81544;SDS011;70990;50.618;7.346;2023-07-08T13:43:54;7.85;;;4.55;;
81544;SDS011;70990;50.618;7.346;2023-07-08T13:46:34;10.38;;;4.30;;
81544;SDS011;70990;50.618;7.346;2023-07-08T13:49:11;9.05;;;4.43;;
81544;SDS011;70990;50.618;7.346;2023-07-08T13:51:41;11.80;;;4.18;;
81544;SDS011;70990;50.618;7.346;2023-07-08T13:54:13;7.95;;;3.97;;
81544;SDS011;70990;50.618;7.346;2023-07-08T13:56:49;10.23;;;4.43;;
81544;SDS011;70990;50.618;7.346;2023-07-08T13:59:18;9.65;;;3.92;;
81544;SDS011;70990;50.618;7.346;2023-07-08T14:01:53;8.70;;;4.57;;
81544;SDS011;70990;50.618;7.346;2023-07-08T14:04:40;9.38;;;4.50;;
81544;SDS011;70990;50.618;7.346;2023-07-08T14:07:16;13.48;;;4.97;;
81544;SDS011;70990;50.618;7.346;2023-07-08T14:09:45;9.45;;;4.35;;
81544;SDS011;70990;50.618;7.346;2023-07-08T14:12:11;8.95;;;3.92;;
81544;SDS011;70990;50.618;7.346;2023-07-08T14:14:38;12.43;;;4.25;;
81544;SDS011;70990;50.618;7.346;2023-07-08T14:17:05;11.30;;;4.07;;
81544;SDS011;70990;50.618;7.346;2023-07-08T14:19:34;8.00;;;4.10;;
81544;SDS011;70990;50.618;7.346;2023-07-08T14:22:02;8.93;;;4.47;;
81544;SDS011;70990;50.618;7.346;2023-07-08T14:24:45;9.77;;;5.28;;
81544;SDS011;70990;50.618;7.346;2023-07-08T14:27:12;7.63;;;4.07;;
81544;SDS011;70990;50.618;7.346;2023-07-08T14:29:42;8.18;;;4.47;;
81544;SDS011;70990;50.618;7.346;2023-07-08T14:32:14;10.88;;;4.78;;
81544;SDS011;70990;50.618;7.346;2023-07-08T14:34:48;9.07;;;4.10;;
81544;SDS011;70990;50.618;7.346;2023-07-08T14:37:18;8.77;;;5.45;;
81544;SDS011;70990;50.618;7.346;2023-07-08T14:39:46;8.88;;;4.80;;
81544;SDS011;70990;50.618;7.346;2023-07-08T14:42:14;9.07;;;4.55;;
81544;SDS011;70990;50.618;7.346;2023-07-08T14:44:41;10.68;;;4.80;;
81544;SDS011;70990;50.618;7.346;2023-07-08T14:47:13;9.52;;;4.78;;
81544;SDS011;70990;50.618;7.346;2023-07-08T14:49:42;8.20;;;5.18;;
81544;SDS011;70990;50.618;7.346;2023-07-08T14:52:08;10.73;;;5.20;;
81544;SDS011;70990;50.618;7.346;2023-07-08T14:54:35;9.15;;;4.68;;
81544;SDS011;70990;50.618;7.346;2023-07-08T14:57:02;9.35;;;4.72;;
81544;SDS011;70990;50.618;7.346;2023-07-08T14:59:31;10.45;;;4.75;;
81544;SDS011;70990;50.618;7.346;2023-07-08T15:02:01;8.30;;;4.53;;
81544;SDS011;70990;50.618;7.346;2023-07-08T15:04:41;16.20;;;4.90;;
81544;SDS011;70990;50.618;7.346;2023-07-08T15:07:08;10.55;;;4.10;;
81544;SDS011;70990;50.618;7.346;2023-07-08T15:09:35;9.93;;;4.18;;
81544;SDS011;70990;50.618;7.346;2023-07-08T15:12:01;10.73;;;4.40;;
81544;SDS011;70990;50.618;7.346;2023-07-08T15:14:28;9.50;;;3.70;;
81544;SDS011;70990;50.618;7.346;2023-07-08T15:16:55;11.98;;;4.05;;
81544;SDS011;70990;50.618;7.346;2023-07-08T15:19:21;8.85;;;3.75;;
81544;SDS011;70990;50.618;7.346;2023-07-08T15:21:49;11.07;;;4.55;;
81544;SDS011;70990;50.618;7.346;2023-07-08T15:24:15;8.93;;;4.13;;
81544;SDS011;70990;50.618;7.346;2023-07-08T15:26:43;10.40;;;4.53;;
81544;SDS011;70990;50.618;7.346;2023-07-08T15:29:19;10.55;;;5.80;;
81544;SDS011;70990;50.618;7.346;2023-07-08T15:31:48;9.50;;;4.85;;
81544;SDS011;70990;50.618;7.346;2023-07-08T15:34:16;8.20;;;4.57;;
81544;SDS011;70990;50.618;7.346;2023-07-08T15:36:46;9.57;;;7.03;;
81544;SDS011;70990;50.618;7.346;2023-07-08T15:39:13;7.90;;;4.75;;
81544;SDS011;70990;50.618;7.346;2023-07-08T15:41:41;12.18;;;5.13;;
81544;SDS011;70990;50.618;7.346;2023-07-08T15:44:09;9.77;;;5.68;;
81544;SDS011;70990;50.618;7.346;2023-07-08T15:46:46;12.05;;;6.30;;
81544;SDS011;70990;50.618;7.346;2023-07-08T15:49:15;9.13;;;5.57;;
81544;SDS011;70990;50.618;7.346;2023-07-08T15:51:44;10.18;;;5.25;;
81544;SDS011;70990;50.618;7.346;2023-07-08T15:54:15;12.50;;;6.10;;
81544;SDS011;70990;50.618;7.346;2023-07-08T15:56:42;8.93;;;5.00;;
81544;SDS011;70990;50.618;7.346;2023-07-08T15:59:27;11.38;;;5.22;;
81544;SDS011;70990;50.618;7.346;2023-07-08T16:01:57;9.68;;;6.18;;
81544;SDS011;70990;50.618;7.346;2023-07-08T16:04:31;9.02;;;5.85;;
81544;SDS011;70990;50.618;7.346;2023-07-08T16:06:59;12.80;;;6.95;;
81544;SDS011;70990;50.618;7.346;2023-07-08T16:09:29;11.82;;;5.20;;